sensor_id;sensor_type;location;lat;lon;timestamp;pressure;altitude;pressure_sealevel;temperature;humidity
12676;BME280;63820;65.654;21.944;2023-11-22T00:01:31;102166.59;;;-15.16;100.00
12676;BME280;63820;65.654;21.944;2023-11-22T00:04:15;102173.38;;;-15.05;100.00
12676;BME280;63820;65.654;21.944;2023-11-22T00:06:59;102157.19;;;-15.00;100.00
12676;BME280;63820;65.654;21.944;2023-11-22T00:09:43;102161.34;;;-14.91;100.00
12676;BME280;63820;65.654;21.944;2023-11-22T00:12:27;102159.75;;;-14.80;100.00
12676;BME280;63820;65.654;21.944;2023-11-22T00:15:11;102167.78;;;-14.74;100.00
12676;BME280;63820;65.654;21.944;2023-11-22T00:17:55;102140.47;;;-14.62;100.00
12676;BME280;63820;65.654;21.944;2023-11-22T00:20:41;102136.34;;;-14.62;100.00
12676;BME280;63820;65.654;21.944;2023-11-22T00:23:25;102134.09;;;-14.59;100.00
12676;BME280;63820;65.654;21.944;2023-11-22T00:26:12;102143.34;;;-14.58;100.00
12676;BME280;63820;65.654;21.944;2023-11-22T00:28:56;102127.09;;;-14.52;100.00
12676;BME280;63820;65.654;21.944;2023-11-22T00:31:41;102120.50;;;-14.42;100.00
12676;BME280;63820;65.654;21.944;2023-11-22T00:34:24;102117.09;;;-14.32;100.00
12676;BME280;63820;65.654;21.944;2023-11-22T00:37:08;102090.63;;;-14.30;100.00
12676;BME280;63820;65.654;21.944;2023-11-22T00:39:52;102095.47;;;-14.32;100.00
12676;BME280;63820;65.654;21.944;2023-11-22T00:42:37;102092.25;;;-14.21;100.00
12676;BME280;63820;65.654;21.944;2023-11-22T00:45:23;102094.38;;;-14.05;100.00
12676;BME280;63820;65.654;21.944;2023-11-22T00:48:07;102077.09;;;-14.02;100.00
12676;BME280;63820;65.654;21.944;2023-11-22T00:50:52;102074.00;;;-13.99;100.00
12676;BME280;63820;65.654;21.944;2023-11-22T00:53:36;102070.34;;;-13.93;100.00
12676;BME280;63820;65.654;21.944;2023-11-22T00:56:20;102055.59;;;-13.90;100.00
12676;BME280;63820;65.654;21.944;2023-11-22T00:59:04;102051.22;;;-13.82;100.00
12676;BME280;63820;65.654;21.944;2023-11-22T01:01:48;102046.53;;;-13.67;100.00
12676;BME280;63820;65.654;21.944;2023-11-22T01:04:32;102050.25;;;-13.52;100.00
12676;BME280;63820;65.654;21.944;2023-11-22T01:07:19;102044.25;;;-13.32;100.00
12676;BME280;63820;65.654;21.944;2023-11-22T01:10:03;102014.34;;;-13.31;100.00
12676;BME280;63820;65.654;21.944;2023-11-22T01:12:48;102029.31;;;-13.20;100.00
12676;BME280;63820;65.654;21.944;2023-11-22T01:15:32;102019.00;;;-13.13;100.00
12676;BME280;63820;65.654;21.944;2023-11-22T01:18:16;102015.84;;;-13.11;100.00
12676;BME280;63820;65.654;21.944;2023-11-22T01:21:00;102002.81;;;-13.07;100.00
12676;BME280;63820;65.654;21.944;2023-11-22T01:23:44;102008.31;;;-12.89;100.00
12676;BME280;63820;65.654;21.944;2023-11-22T01:26:29;101997.72;;;-12.75;100.00
12676;BME280;63820;65.654;21.944;2023-11-22T01:29:14;101985.66;;;-12.69;100.00
12676;BME280;63820;65.654;21.944;2023-11-22T01:31:58;101978.59;;;-12.63;100.00
12676;BME280;63820;65.654;21.944;2023-11-22T01:34:42;101970.75;;;-12.56;100.00
12676;BME280;63820;65.654;21.944;2023-11-22T01:37:26;101972.59;;;-12.41;100.00
12676;BME280;63820;65.654;21.944;2023-11-22T01:40:11;101961.94;;;-12.39;100.00
12676;BME280;63820;65.654;21.944;2023-11-22T01:42:57;101960.41;;;-12.25;100.00
12676;BME280;63820;65.654;21.944;2023-11-22T01:45:41;101963.03;;;-12.12;100.00
12676;BME280;63820;65.654;21.944;2023-11-22T01:48:26;101956.81;;;-11.94;100.00
12676;BME280;63820;65.654;21.944;2023-11-22T01:51:10;101935.28;;;-11.67;100.00
12676;BME280;63820;65.654;21.944;2023-11-22T01:53:56;101922.25;;;-11.00;100.00
12676;BME280;63820;65.654;21.944;2023-11-22T01:56:41;101918.41;;;-10.43;100.00
12676;BME280;63820;65.654;21.944;2023-11-22T01:59:25;101923.13;;;-10.08;100.00
12676;BME280;63820;65.654;21.944;2023-11-22T02:02:10;101901.47;;;-9.65;100.00
12676;BME280;63820;65.654;21.944;2023-11-22T02:04:54;101902.59;;;-9.47;100.00
12676;BME280;63820;65.654;21.944;2023-11-22T02:07:38;101895.41;;;-9.41;100.00
12676;BME280;63820;65.654;21.944;2023-11-22T02:10:23;101888.81;;;-9.39;100.00
12676;BME280;63820;65.654;21.944;2023-11-22T02:13:07;101888.34;;;-9.46;100.00
12676;BME280;63820;65.654;21.944;2023-11-22T02:15:52;101885.94;;;-9.30;100.00
12676;BME280;63820;65.654;21.944;2023-11-22T02:18:40;101876.72;;;-9.30;100.00
12676;BME280;63820;65.654;21.944;2023-11-22T02:21:26;101875.66;;;-9.05;100.00
12676;BME280;63820;65.654;21.944;2023-11-22T02:24:10;101868.09;;;-9.05;100.00
12676;BME280;63820;65.654;21.944;2023-11-22T02:26:54;101862.03;;;-8.94;100.00
12676;BME280;63820;65.654;21.944;2023-11-22T02:29:39;101853.25;;;-8.71;100.00
12676;BME280;63820;65.654;21.944;2023-11-22T02:32:24;101830.78;;;-8.37;100.00
12676;BME280;63820;65.654;21.944;2023-11-22T02:35:08;101824.84;;;-8.21;100.00
12676;BME280;63820;65.654;21.944;2023-11-22T02:37:55;101822.69;;;-7.99;100.00
12676;BME280;63820;65.654;21.944;2023-11-22T02:40:39;101815.22;;;-7.65;100.00
12676;BME280;63820;65.654;21.944;2023-11-22T02:43:23;101803.22;;;-7.37;100.00
12676;BME280;63820;65.654;21.944;2023-11-22T02:46:08;101797.75;;;-7.10;100.00
12676;BME280;63820;65.654;21.944;2023-11-22T02:48:52;101790.41;;;-7.06;100.00
12676;BME280;63820;65.654;21.944;2023-11-22T02:51:37;101782.63;;;-6.93;100.00
12676;BME280;63820;65.654;21.944;2023-11-22T02:54:21;101772.31;;;-6.79;100.00
12676;BME280;63820;65.654;21.944;2023-11-22T02:57:05;101765.50;;;-6.63;100.00
12676;BME280;63820;65.654;21.944;2023-11-22T02:59:49;101757.91;;;-6.63;100.00
12676;BME280;63820;65.654;21.944;2023-11-22T03:02:36;101753.94;;;-6.57;100.00
12676;BME280;63820;65.654;21.944;2023-11-22T03:05:21;101744.75;;;-6.55;100.00
12676;BME280;63820;65.654;21.944;2023-11-22T03:08:06;101734.06;;;-6.50;100.00
12676;BME280;63820;65.654;21.944;2023-11-22T03:10:51;101739.81;;;-6.35;100.00
12676;BME280;63820;65.654;21.944;2023-11-22T03:13:35;101736.56;;;-6.32;100.00
12676;BME280;63820;65.654;21.944;2023-11-22T03:16:19;101730.09;;;-6.25;100.00
12676;BME280;63820;65.654;21.944;2023-11-22T03:19:03;101712.16;;;-6.11;100.00
12676;BME280;63820;65.654;21.944;2023-11-22T03:21:47;101711.34;;;-6.10;100.00
12676;BME280;63820;65.654;21.944;2023-11-22T03:24:31;101705.75;;;-6.03;100.00
12676;BME280;63820;65.654;21.944;2023-11-22T03:27:16;101683.91;;;-6.01;100.00
12676;BME280;63820;65.654;21.944;2023-11-22T03:30:00;101683.25;;;-5.97;100.00
12676;BME280;63820;65.654;21.944;2023-11-22T03:32:44;101671.56;;;-5.93;100.00
12676;BME280;63820;65.654;21.944;2023-11-22T03:35:28;101665.88;;;-5.87;100.00
12676;BME280;63820;65.654;21.944;2023-11-22T03:38:12;101656.78;;;-5.82;100.00
12676;BME280;63820;65.654;21.944;2023-11-22T03:40:56;101653.72;;;-5.75;100.00
12676;BME280;63820;65.654;21.944;2023-11-22T03:43:40;101653.16;;;-5.68;100.00
12676;BME280;63820;65.654;21.944;2023-11-22T03:46:25;101640.88;;;-5.59;100.00
12676;BME280;63820;65.654;21.944;2023-11-22T03:49:09;101639.25;;;-5.57;100.00
12676;BME280;63820;65.654;21.944;2023-11-22T03:51:54;101643.78;;;-5.50;100.00
12676;BME280;63820;65.654;21.944;2023-11-22T03:54:38;101635.69;;;-5.41;100.00
12676;BME280;63820;65.654;21.944;2023-11-22T03:57:23;101623.06;;;-5.40;100.00
12676;BME280;63820;65.654;21.944;2023-11-22T04:00:07;101630.22;;;-5.30;100.00
12676;BME280;63820;65.654;21.944;2023-11-22T04:02:53;101618.59;;;-5.24;100.00
12676;BME280;63820;65.654;21.944;2023-11-22T04:05:37;101613.53;;;-5.24;100.00
12676;BME280;63820;65.654;21.944;2023-11-22T04:08:23;101619.03;;;-5.12;100.00
12676;BME280;63820;65.654;21.944;2023-11-22T04:11:07;101610.06;;;-5.04;100.00
12676;BME280;63820;65.654;21.944;2023-11-22T04:13:51;101594.25;;;-4.97;100.00
12676;BME280;63820;65.654;21.944;2023-11-22T04:16:36;101605.38;;;-4.94;100.00
12676;BME280;63820;65.654;21.944;2023-11-22T04:19:21;101596.72;;;-4.76;100.00
12676;BME280;63820;65.654;21.944;2023-11-22T04:22:05;101586.06;;;-4.68;100.00
12676;BME280;63820;65.654;21.944;2023-11-22T04:24:49;101578.66;;;-4.62;100.00
12676;BME280;63820;65.654;21.944;2023-11-22T04:27:33;101571.03;;;-4.62;100.00
12676;BME280;63820;65.654;21.944;2023-11-22T04:30:17;101556.34;;;-4.46;100.00
12676;BME280;63820;65.654;21.944;2023-11-22T04:33:01;101548.09;;;-4.41;100.00
12676;BME280;63820;65.654;21.944;2023-11-22T04:35:47;101545.81;;;-4.33;100.00
12676;BME280;63820;65.654;21.944;2023-11-22T04:38:31;101535.31;;;-4.18;100.00
12676;BME280;63820;65.654;21.944;2023-11-22T04:41:15;101520.41;;;-4.08;100.00
12676;BME280;63820;65.654;21.944;2023-11-22T04:43:59;101515.38;;;-4.06;100.00
12676;BME280;63820;65.654;21.944;2023-11-22T04:46:43;101505.66;;;-3.92;100.00
12676;BME280;63820;65.654;21.944;2023-11-22T04:49:27;101504.41;;;-3.78;100.00
12676;BME280;63820;65.654;21.944;2023-11-22T04:52:11;101483.53;;;-3.68;100.00
12676;BME280;63820;65.654;21.944;2023-11-22T04:54:56;101481.22;;;-3.60;100.00
12676;BME280;63820;65.654;21.944;2023-11-22T04:57:40;101465.47;;;-3.49;100.00
12676;BME280;63820;65.654;21.944;2023-11-22T05:00:24;101458.00;;;-3.44;100.00
12676;BME280;63820;65.654;21.944;2023-11-22T05:03:08;101440.22;;;-3.43;100.00
12676;BME280;63820;65.654;21.944;2023-11-22T05:05:51;101430.41;;;-3.31;100.00
12676;BME280;63820;65.654;21.944;2023-11-22T05:08:35;101415.41;;;-3.21;100.00
12676;BME280;63820;65.654;21.944;2023-11-22T05:11:19;101391.91;;;-3.11;100.00
12676;BME280;63820;65.654;21.944;2023-11-22T05:14:03;101394.56;;;-3.07;100.00
12676;BME280;63820;65.654;21.944;2023-11-22T05:16:47;101386.81;;;-3.11;100.00
12676;BME280;63820;65.654;21.944;2023-11-22T05:19:31;101359.97;;;-3.00;100.00
12676;BME280;63820;65.654;21.944;2023-11-22T05:22:15;101361.72;;;-2.98;100.00
12676;BME280;63820;65.654;21.944;2023-11-22T05:24:59;101349.06;;;-2.94;100.00
12676;BME280;63820;65.654;21.944;2023-11-22T05:27:43;101339.13;;;-2.85;100.00
12676;BME280;63820;65.654;21.944;2023-11-22T05:30:27;101322.91;;;-2.89;100.00
12676;BME280;63820;65.654;21.944;2023-11-22T05:33:11;101328.94;;;-2.85;100.00
12676;BME280;63820;65.654;21.944;2023-11-22T05:35:55;101323.94;;;-2.82;100.00
12676;BME280;63820;65.654;21.944;2023-11-22T05:38:39;101316.34;;;-2.81;100.00
12676;BME280;63820;65.654;21.944;2023-11-22T05:41:23;101297.75;;;-2.77;100.00
12676;BME280;63820;65.654;21.944;2023-11-22T05:44:07;101290.09;;;-2.78;100.00
12676;BME280;63820;65.654;21.944;2023-11-22T05:46:52;101279.19;;;-2.73;100.00
12676;BME280;63820;65.654;21.944;2023-11-22T05:49:38;101257.03;;;-2.77;100.00
12676;BME280;63820;65.654;21.944;2023-11-22T05:52:22;101250.31;;;-2.73;100.00
12676;BME280;63820;65.654;21.944;2023-11-22T05:55:07;101230.88;;;-2.70;100.00
12676;BME280;63820;65.654;21.944;2023-11-22T05:57:52;101220.75;;;-2.67;100.00
12676;BME280;63820;65.654;21.944;2023-11-22T06:00:36;101219.91;;;-2.67;100.00
12676;BME280;63820;65.654;21.944;2023-11-22T06:03:22;101197.84;;;-2.67;100.00
12676;BME280;63820;65.654;21.944;2023-11-22T06:06:06;101187.66;;;-2.67;100.00
12676;BME280;63820;65.654;21.944;2023-11-22T06:08:50;101196.22;;;-2.63;100.00
12676;BME280;63820;65.654;21.944;2023-11-22T06:11:34;101199.63;;;-2.63;100.00
12676;BME280;63820;65.654;21.944;2023-11-22T06:14:18;101181.78;;;-2.64;100.00
12676;BME280;63820;65.654;21.944;2023-11-22T06:17:04;101175.06;;;-2.60;100.00
12676;BME280;63820;65.654;21.944;2023-11-22T06:19:48;101159.91;;;-2.54;100.00
12676;BME280;63820;65.654;21.944;2023-11-22T06:22:32;101158.28;;;-2.51;100.00
12676;BME280;63820;65.654;21.944;2023-11-22T06:25:16;101149.72;;;-2.54;100.00
12676;BME280;63820;65.654;21.944;2023-11-22T06:28:00;101134.53;;;-2.50;100.00
12676;BME280;63820;65.654;21.944;2023-11-22T06:30:44;101128.59;;;-2.50;100.00
12676;BME280;63820;65.654;21.944;2023-11-22T06:33:28;101118.50;;;-2.44;100.00
12676;BME280;63820;65.654;21.944;2023-11-22T06:36:12;101107.47;;;-2.45;100.00
12676;BME280;63820;65.654;21.944;2023-11-22T06:38:58;101109.22;;;-2.42;100.00
12676;BME280;63820;65.654;21.944;2023-11-22T06:41:44;101118.50;;;-2.44;100.00
12676;BME280;63820;65.654;21.944;2023-11-22T06:44:28;101095.72;;;-2.38;100.00
12676;BME280;63820;65.654;21.944;2023-11-22T06:47:12;101072.66;;;-2.44;100.00
12676;BME280;63820;65.654;21.944;2023-11-22T06:49:56;101084.56;;;-2.43;100.00
12676;BME280;63820;65.654;21.944;2023-11-22T06:52:41;101065.16;;;-2.37;100.00
12676;BME280;63820;65.654;21.944;2023-11-22T06:55:25;101062.59;;;-2.38;100.00
12676;BME280;63820;65.654;21.944;2023-11-22T06:58:10;101055.88;;;-2.33;100.00
12676;BME280;63820;65.654;21.944;2023-11-22T07:00:55;101049.19;;;-2.28;100.00
12676;BME280;63820;65.654;21.944;2023-11-22T07:03:39;101030.53;;;-2.27;100.00
12676;BME280;63820;65.654;21.944;2023-11-22T07:06:24;101029.66;;;-2.27;100.00
12676;BME280;63820;65.654;21.944;2023-11-22T07:09:08;101005.94;;;-2.25;100.00
12676;BME280;63820;65.654;21.944;2023-11-22T07:11:55;101013.53;;;-2.26;100.00
12676;BME280;63820;65.654;21.944;2023-11-22T07:14:41;100994.06;;;-2.23;100.00
12676;BME280;63820;65.654;21.944;2023-11-22T07:17:27;100978.00;;;-2.19;100.00
12676;BME280;63820;65.654;21.944;2023-11-22T07:20:14;100976.38;;;-2.14;100.00
12676;BME280;63820;65.654;21.944;2023-11-22T07:23:00;100971.38;;;-2.09;100.00
12676;BME280;63820;65.654;21.944;2023-11-22T07:25:46;100956.06;;;-2.08;100.00
12676;BME280;63820;65.654;21.944;2023-11-22T07:28:30;100938.22;;;-2.11;100.00
12676;BME280;63820;65.654;21.944;2023-11-22T07:31:15;100933.97;;;-2.10;100.00
12676;BME280;63820;65.654;21.944;2023-11-22T07:34:00;100923.81;;;-2.06;100.00
12676;BME280;63820;65.654;21.944;2023-11-22T07:36:45;100917.94;;;-2.00;100.00
12676;BME280;63820;65.654;21.944;2023-11-22T07:39:31;100891.53;;;-2.05;100.00
12676;BME280;63820;65.654;21.944;2023-11-22T07:42:15;100891.59;;;-2.01;100.00
12676;BME280;63820;65.654;21.944;2023-11-22T07:44:59;100890.78;;;-2.00;100.00
12676;BME280;63820;65.654;21.944;2023-11-22T07:47:43;100864.56;;;-1.89;100.00
12676;BME280;63820;65.654;21.944;2023-11-22T07:50:27;100871.44;;;-1.85;100.00
12676;BME280;63820;65.654;21.944;2023-11-22T07:53:13;100866.31;;;-1.85;100.00
12676;BME280;63820;65.654;21.944;2023-11-22T07:55:58;100856.97;;;-1.86;100.00
12676;BME280;63820;65.654;21.944;2023-11-22T07:58:42;100837.44;;;-1.84;100.00
12676;BME280;63820;65.654;21.944;2023-11-22T08:01:26;100832.41;;;-1.78;100.00
12676;BME280;63820;65.654;21.944;2023-11-22T08:04:13;100823.94;;;-1.77;100.00
12676;BME280;63820;65.654;21.944;2023-11-22T08:06:58;100831.59;;;-1.77;100.00
12676;BME280;63820;65.654;21.944;2023-11-22T08:09:42;100810.41;;;-1.70;100.00
12676;BME280;63820;65.654;21.944;2023-11-22T08:12:27;100796.81;;;-1.72;100.00
12676;BME280;63820;65.654;21.944;2023-11-22T08:15:14;100786.59;;;-1.72;100.00
12676;BME280;63820;65.654;21.944;2023-11-22T08:17:58;100774.78;;;-1.64;100.00
12676;BME280;63820;65.654;21.944;2023-11-22T08:20:44;100757.78;;;-1.63;100.00
12676;BME280;63820;65.654;21.944;2023-11-22T08:23:28;100749.31;;;-1.62;100.00
12676;BME280;63820;65.654;21.944;2023-11-22T08:26:15;100737.41;;;-1.60;100.00
12676;BME280;63820;65.654;21.944;2023-11-22T08:28:59;100728.91;;;-1.61;100.00
12676;BME280;63820;65.654;21.944;2023-11-22T08:31:43;100712.78;;;-1.58;100.00
12676;BME280;63820;65.654;21.944;2023-11-22T08:34:27;100706.03;;;-1.53;100.00
12676;BME280;63820;65.654;21.944;2023-11-22T08:37:11;100678.00;;;-1.49;100.00
12676;BME280;63820;65.654;21.944;2023-11-22T08:39:55;100666.03;;;-1.56;100.00
12676;BME280;63820;65.654;21.944;2023-11-22T08:42:39;100665.22;;;-1.53;100.00
12676;BME280;63820;65.654;21.944;2023-11-22T08:45:24;100646.56;;;-1.48;100.00
12676;BME280;63820;65.654;21.944;2023-11-22T08:48:08;100616.78;;;-1.49;100.00
12676;BME280;63820;65.654;21.944;2023-11-22T08:50:53;100621.91;;;-1.46;100.00
12676;BME280;63820;65.654;21.944;2023-11-22T08:53:39;100612.53;;;-1.50;100.00
12676;BME280;63820;65.654;21.944;2023-11-22T08:56:23;100592.13;;;-1.50;100.00
12676;BME280;63820;65.654;21.944;2023-11-22T08:59:08;100593.00;;;-1.45;100.00
12676;BME280;63820;65.654;21.944;2023-11-22T09:01:52;100574.31;;;-1.44;100.00
12676;BME280;63820;65.654;21.944;2023-11-22T09:04:36;100549.63;;;-1.46;100.00
12676;BME280;63820;65.654;21.944;2023-11-22T09:07:21;100540.31;;;-1.43;100.00
12676;BME280;63820;65.654;21.944;2023-11-22T09:10:07;100537.75;;;-1.44;100.00
12676;BME280;63820;65.654;21.944;2023-11-22T09:12:57;100519.06;;;-1.40;100.00
12676;BME280;63820;65.654;21.944;2023-11-22T09:15:43;100503.78;;;-1.37;100.00
12676;BME280;63820;65.654;21.944;2023-11-22T09:18:31;100491.91;;;-1.30;100.00
12676;BME280;63820;65.654;21.944;2023-11-22T09:21:15;100495.31;;;-1.25;100.00
12676;BME280;63820;65.654;21.944;2023-11-22T09:24:00;100480.88;;;-1.23;100.00
12676;BME280;63820;65.654;21.944;2023-11-22T09:26:45;100468.13;;;-1.20;100.00
12676;BME280;63820;65.654;21.944;2023-11-22T09:29:29;100451.13;;;-1.15;100.00
12676;BME280;63820;65.654;21.944;2023-11-22T09:32:13;100452.00;;;-1.13;100.00
12676;BME280;63820;65.654;21.944;2023-11-22T09:34:57;100428.16;;;-1.15;100.00
12676;BME280;63820;65.654;21.944;2023-11-22T09:37:42;100423.94;;;-1.06;100.00
12676;BME280;63820;65.654;21.944;2023-11-22T09:40:26;100419.69;;;-1.08;100.00
12676;BME280;63820;65.654;21.944;2023-11-22T09:43:17;100414.59;;;-1.08;100.00
12676;BME280;63820;65.654;21.944;2023-11-22T09:46:03;100407.78;;;-1.09;100.00
12676;BME280;63820;65.654;21.944;2023-11-22T09:48:47;100387.34;;;-1.06;100.00
12676;BME280;63820;65.654;21.944;2023-11-22T09:51:37;100365.22;;;-1.01;100.00
12676;BME280;63820;65.654;21.944;2023-11-22T09:54:23;100357.56;;;-1.01;100.00
12676;BME280;63820;65.654;21.944;2023-11-22T09:57:13;100359.28;;;-0.95;100.00
12676;BME280;63820;65.654;21.944;2023-11-22T09:59:58;100351.63;;;-0.89;100.00
12676;BME280;63820;65.654;21.944;2023-11-22T10:02:44;100344.81;;;-0.90;100.00
12676;BME280;63820;65.654;21.944;2023-11-22T10:05:28;100338.00;;;-0.87;100.00
12676;BME280;63820;65.654;21.944;2023-11-22T10:08:12;100327.78;;;-0.87;100.00
12676;BME280;63820;65.654;21.944;2023-11-22T10:10:57;100303.09;;;-0.80;100.00
12676;BME280;63820;65.654;21.944;2023-11-22T10:13:42;100283.53;;;-0.80;100.00
12676;BME280;63820;65.654;21.944;2023-11-22T10:16:26;100271.59;;;-0.70;100.00
12676;BME280;63820;65.654;21.944;2023-11-22T10:19:10;100286.09;;;-0.69;100.00
12676;BME280;63820;65.654;21.944;2023-11-22T10:22:05;100277.56;;;-0.65;100.00
12676;BME280;63820;65.654;21.944;2023-11-22T10:24:49;100257.97;;;-0.57;100.00
12676;BME280;63820;65.654;21.944;2023-11-22T10:27:33;100240.09;;;-0.52;100.00
12676;BME280;63820;65.654;21.944;2023-11-22T10:30:18;100237.50;;;-0.48;100.00
12676;BME280;63820;65.654;21.944;2023-11-22T10:33:03;100231.53;;;-0.39;100.00
12676;BME280;63820;65.654;21.944;2023-11-22T10:35:49;100205.09;;;-0.32;100.00
12676;BME280;63820;65.654;21.944;2023-11-22T10:38:34;100200.81;;;-0.25;100.00
12676;BME280;63820;65.654;21.944;2023-11-22T10:41:20;100186.31;;;-0.16;100.00
12676;BME280;63820;65.654;21.944;2023-11-22T10:44:06;100187.13;;;-0.08;100.00
12676;BME280;63820;65.654;21.944;2023-11-22T10:46:51;100175.19;;;-0.09;100.00
12676;BME280;63820;65.654;21.944;2023-11-22T10:49:36;100163.25;;;-0.07;100.00
12676;BME280;63820;65.654;21.944;2023-11-22T10:52:21;100141.06;;;0.00;100.00
12676;BME280;63820;65.654;21.944;2023-11-22T10:55:12;100131.59;;;0.07;100.00
12676;BME280;63820;65.654;21.944;2023-11-22T10:58:03;100131.59;;;0.07;100.00
12676;BME280;63820;65.654;21.944;2023-11-22T11:00:48;100091.56;;;0.04;100.00
12676;BME280;63820;65.654;21.944;2023-11-22T11:03:37;100069.41;;;0.02;100.00
12676;BME280;63820;65.654;21.944;2023-11-22T11:06:26;100045.59;;;-0.01;100.00
12676;BME280;63820;65.654;21.944;2023-11-22T11:09:13;100014.91;;;-0.01;100.00
12676;BME280;63820;65.654;21.944;2023-11-22T11:12:01;100010.59;;;0.05;100.00
12676;BME280;63820;65.654;21.944;2023-11-22T11:14:47;99985.03;;;0.05;100.00
12676;BME280;63820;65.654;21.944;2023-11-22T11:17:31;99965.50;;;-0.01;100.00
12676;BME280;63820;65.654;21.944;2023-11-22T11:20:16;99954.50;;;-0.11;100.00
12676;BME280;63820;65.654;21.944;2023-11-22T11:23:02;99931.50;;;-0.12;100.00
12676;BME280;63820;65.654;21.944;2023-11-22T11:25:50;99926.38;;;-0.09;100.00
12676;BME280;63820;65.654;21.944;2023-11-22T11:28:46;99914.41;;;-0.04;100.00
12676;BME280;63820;65.654;21.944;2023-11-22T11:31:38;99903.22;;;0.02;100.00
12676;BME280;63820;65.654;21.944;2023-11-22T11:34:23;99882.78;;;0.02;100.00
12676;BME280;63820;65.654;21.944;2023-11-22T11:37:10;99865.72;;;0.02;100.00
12676;BME280;63820;65.654;21.944;2023-11-22T11:39:58;99871.66;;;0.04;100.00
12676;BME280;63820;65.654;21.944;2023-11-22T11:42:43;99840.94;;;0.09;100.00
12676;BME280;63820;65.654;21.944;2023-11-22T11:45:28;99834.94;;;0.13;100.00
12676;BME280;63820;65.654;21.944;2023-11-22T11:48:13;99821.22;;;0.20;100.00
12676;BME280;63820;65.654;21.944;2023-11-22T11:50:58;99812.69;;;0.18;100.00
12676;BME280;63820;65.654;21.944;2023-11-22T11:53:43;99781.16;;;0.17;100.00
12676;BME280;63820;65.654;21.944;2023-11-22T11:56:27;99808.44;;;0.18;100.00
12676;BME280;63820;65.654;21.944;2023-11-22T11:59:13;99803.31;;;0.20;100.00
12676;BME280;63820;65.654;21.944;2023-11-22T12:01:59;99787.06;;;0.24;100.00
12676;BME280;63820;65.654;21.944;2023-11-22T12:04:43;99753.84;;;0.21;100.00
12676;BME280;63820;65.654;21.944;2023-11-22T12:07:27;99741.88;;;0.24;100.00
12676;BME280;63820;65.654;21.944;2023-11-22T12:10:11;99740.97;;;0.27;100.00
12676;BME280;63820;65.654;21.944;2023-11-22T12:12:55;99728.22;;;0.24;100.00
12676;BME280;63820;65.654;21.944;2023-11-22T12:15:41;99710.38;;;0.21;100.00
12676;BME280;63820;65.654;21.944;2023-11-22T12:18:25;99692.50;;;0.19;100.00
12676;BME280;63820;65.654;21.944;2023-11-22T12:21:09;99681.41;;;0.19;100.00
12676;BME280;63820;65.654;21.944;2023-11-22T12:23:59;99671.13;;;0.23;100.00
12676;BME280;63820;65.654;21.944;2023-11-22T12:26:45;99665.97;;;0.25;100.00
12676;BME280;63820;65.654;21.944;2023-11-22T12:29:29;99654.78;;;0.32;100.00
12676;BME280;63820;65.654;21.944;2023-11-22T12:32:13;99646.38;;;0.25;100.00
12676;BME280;63820;65.654;21.944;2023-11-22T12:34:57;99650.63;;;0.25;100.00
12676;BME280;63820;65.654;21.944;2023-11-22T12:37:41;99640.41;;;0.25;100.00
12676;BME280;63820;65.654;21.944;2023-11-22T12:40:27;99624.97;;;0.31;100.00
12676;BME280;63820;65.654;21.944;2023-11-22T12:43:13;99614.75;;;0.29;100.00
12676;BME280;63820;65.654;21.944;2023-11-22T12:46:02;99609.66;;;0.28;100.00
12676;BME280;63820;65.654;21.944;2023-11-22T12:48:47;99601.13;;;0.29;100.00
12676;BME280;63820;65.654;21.944;2023-11-22T12:51:31;99595.16;;;0.28;100.00
12676;BME280;63820;65.654;21.944;2023-11-22T12:54:15;99575.59;;;0.26;100.00
12676;BME280;63820;65.654;21.944;2023-11-22T12:57:00;99553.50;;;0.22;100.00
12676;BME280;63820;65.654;21.944;2023-11-22T12:59:44;99535.56;;;0.23;100.00
12676;BME280;63820;65.654;21.944;2023-11-22T13:02:28;99541.53;;;0.24;100.00
12676;BME280;63820;65.654;21.944;2023-11-22T13:05:12;99501.56;;;0.18;100.00
12676;BME280;63820;65.654;21.944;2023-11-22T13:07:59;99491.34;;;0.18;100.00
12676;BME280;63820;65.654;21.944;2023-11-22T13:10:44;99479.53;;;0.11;100.00
12676;BME280;63820;65.654;21.944;2023-11-22T13:13:30;99448.06;;;0.08;100.00
12676;BME280;63820;65.654;21.944;2023-11-22T13:16:14;99447.13;;;0.12;100.00
12676;BME280;63820;65.654;21.944;2023-11-22T13:19:00;99451.25;;;0.19;100.00
12676;BME280;63820;65.654;21.944;2023-11-22T13:21:44;99429.03;;;0.22;100.00
12676;BME280;63820;65.654;21.944;2023-11-22T13:24:28;99409.41;;;0.24;100.00
12676;BME280;63820;65.654;21.944;2023-11-22T13:27:12;99417.84;;;0.28;100.00
12676;BME280;63820;65.654;21.944;2023-11-22T13:29:56;99405.84;;;0.31;100.00
12676;BME280;63820;65.654;21.944;2023-11-22T13:32:42;99380.41;;;0.25;100.00
12676;BME280;63820;65.654;21.944;2023-11-22T13:35:28;99360.06;;;0.19;100.00
12676;BME280;63820;65.654;21.944;2023-11-22T13:38:15;99359.31;;;0.14;100.00
12676;BME280;63820;65.654;21.944;2023-11-22T13:41:00;99344.84;;;0.13;100.00
12676;BME280;63820;65.654;21.944;2023-11-22T13:43:45;99351.59;;;0.16;100.00
12676;BME280;63820;65.654;21.944;2023-11-22T13:46:30;99333.66;;;0.19;100.00
12676;BME280;63820;65.654;21.944;2023-11-22T13:49:14;99324.31;;;0.16;100.00
12676;BME280;63820;65.654;21.944;2023-11-22T13:51:59;99301.34;;;0.15;100.00
12676;BME280;63820;65.654;21.944;2023-11-22T13:54:43;99307.34;;;0.12;100.00
12676;BME280;63820;65.654;21.944;2023-11-22T13:57:27;99296.22;;;0.15;100.00
12676;BME280;63820;65.654;21.944;2023-11-22T14:00:11;99282.66;;;0.11;100.00
12676;BME280;63820;65.654;21.944;2023-11-22T14:03:03;99281.81;;;0.11;100.00